Time;durP1;ratioP1;P1;durP2;ratioP2;P2;SDS_P1;SDS_P2;PMS_P1;PMS_P2;Temp;Humidity;BMP_temperature;BMP_pressure;BME280_temperature;BME280_humidity;BME280_pressure;Samples;Min_cycle;Max_cycle;Signal;HPM_P1;HPM_P2
2021/04/07 00:00:32;;;;;;;5.50;1.50;;;1.20;99.90;;;;;;5046631;28;20427;-80
2021/04/07 00:02:59;;;;;;;4.20;1.70;;;1.20;99.90;;;;;;5051386;28;20296;-80
2021/04/07 00:05:29;;;;;;;4.63;2.20;;;1.20;99.90;;;;;;5031619;28;20251;-80
2021/04/07 00:07:57;;;;;;;4.50;1.80;;;1.10;99.90;;;;;;5031316;28;20200;-78
2021/04/07 00:10:28;;;;;;;3.60;1.77;;;1.10;99.90;;;;;;5032589;28;20262;-80
2021/04/07 00:12:55;;;;;;;2.63;1.70;;;1.00;99.90;;;;;;5051226;28;20774;-80
2021/04/07 00:15:23;;;;;;;3.70;2.00;;;1.00;99.90;;;;;;5051360;28;20247;-80
2021/04/07 00:17:50;;;;;;;6.60;2.10;;;0.90;99.90;;;;;;5051338;28;20311;-79
2021/04/07 00:20:19;;;;;;;4.53;2.00;;;0.90;99.90;;;;;;5050757;28;20291;-80
2021/04/07 00:22:46;;;;;;;5.87;1.90;;;0.90;99.90;;;;;;5051409;28;20242;-80
2021/04/07 00:25:13;;;;;;;6.47;2.20;;;0.80;99.90;;;;;;5051129;28;20689;-81
2021/04/07 00:27:40;;;;;;;5.87;2.40;;;0.70;99.90;;;;;;5051613;28;20551;-80
2021/04/07 00:30:11;;;;;;;4.57;2.27;;;0.70;99.90;;;;;;5051287;28;20215;-79
2021/04/07 00:32:38;;;;;;;4.23;1.70;;;0.70;99.90;;;;;;5051194;28;20322;-80
2021/04/07 00:35:06;;;;;;;5.00;2.20;;;0.60;99.90;;;;;;5050787;28;20230;-79
2021/04/07 00:37:32;;;;;;;4.17;1.90;;;0.50;99.90;;;;;;5051339;28;20338;-80
2021/04/07 00:39:58;;;;;;;3.37;1.87;;;0.40;99.90;;;;;;5051087;28;20295;-79
2021/04/07 00:42:25;;;;;;;3.30;1.80;;;0.50;99.90;;;;;;5051376;28;20303;-80
2021/04/07 00:44:51;;;;;;;2.93;1.80;;;0.40;99.90;;;;;;5051555;28;20295;-80
2021/04/07 00:47:21;;;;;;;2.53;1.70;;;0.20;99.90;;;;;;5051174;28;20236;-80
2021/04/07 00:49:47;;;;;;;3.60;1.90;;;0.00;99.90;;;;;;5051044;28;20275;-81
2021/04/07 00:52:13;;;;;;;2.97;1.60;;;0.10;99.90;;;;;;5050755;28;20326;-79
2021/04/07 00:54:40;;;;;;;2.93;2.37;;;0.00;99.90;;;;;;5051037;28;20294;-79
2021/04/07 00:57:06;;;;;;;4.63;2.50;;;0.00;99.90;;;;;;5051251;28;20291;-79
2021/04/07 00:59:33;;;;;;;3.33;2.00;;;0.00;99.90;;;;;;5050901;28;20779;-79
2021/04/07 01:02:00;;;;;;;4.53;2.23;;;-0.10;99.90;;;;;;5050903;28;20300;-79
2021/04/07 01:04:29;;;;;;;3.70;1.90;;;-0.10;99.90;;;;;;5050474;28;20294;-79
2021/04/07 01:06:57;;;;;;;5.63;2.43;;;0.00;99.90;;;;;;5051110;28;20231;-79
2021/04/07 01:09:23;;;;;;;3.60;2.03;;;0.00;99.90;;;;;;5051862;28;20690;-79
2021/04/07 01:11:50;;;;;;;4.37;2.20;;;0.00;99.90;;;;;;5054438;28;20290;-80
2021/04/07 01:14:16;;;;;;;5.00;2.10;;;0.10;99.90;;;;;;5052881;28;20250;-80
2021/04/07 01:16:43;;;;;;;5.53;2.23;;;0.10;99.90;;;;;;5054503;28;20231;-80
2021/04/07 01:19:10;;;;;;;6.13;2.27;;;0.00;99.90;;;;;;5054156;28;20319;-79
2021/04/07 01:21:38;;;;;;;4.27;2.50;;;0.10;99.90;;;;;;5054503;28;20719;-79
2021/04/07 01:24:07;;;;;;;4.37;2.10;;;0.10;99.90;;;;;;5034175;28;20296;-80
2021/04/07 01:26:34;;;;;;;4.40;2.17;;;0.20;99.90;;;;;;5034184;28;20696;-79
2021/04/07 01:29:01;;;;;;;5.63;2.20;;;0.20;99.90;;;;;;5034425;28;20681;-80
2021/04/07 01:31:28;;;;;;;6.13;2.20;;;0.10;99.90;;;;;;5033792;28;20328;-80
2021/04/07 01:33:55;;;;;;;5.30;2.07;;;0.10;99.90;;;;;;5034603;28;20236;-79
2021/04/07 01:36:23;;;;;;;4.77;2.10;;;0.00;99.90;;;;;;5034111;28;20552;-80
2021/04/07 01:38:49;;;;;;;3.93;2.03;;;-0.20;99.90;;;;;;5034484;28;20315;-80
2021/04/07 01:41:18;;;;;;;6.43;2.20;;;-0.20;99.90;;;;;;5034042;28;20227;-79
2021/04/07 01:43:45;;;;;;;3.87;2.20;;;-0.10;99.90;;;;;;5034145;28;20207;-80
2021/04/07 01:46:12;;;;;;;5.20;2.20;;;-0.10;99.90;;;;;;5033745;28;20283;-80
2021/04/07 01:48:40;;;;;;;5.47;2.50;;;-0.10;99.90;;;;;;5034172;28;20284;-79
2021/04/07 01:51:08;;;;;;;4.93;2.40;;;-0.10;99.90;;;;;;5033759;28;20209;-80
2021/04/07 01:53:35;;;;;;;4.90;3.10;;;-0.10;99.90;;;;;;5052661;28;20290;-79
2021/04/07 01:56:01;;;;;;;6.80;2.83;;;0.00;99.90;;;;;;5053774;28;20286;-80
2021/04/07 01:58:28;;;;;;;7.77;3.00;;;0.00;99.90;;;;;;5053602;28;20259;-79
2021/04/07 02:00:55;;;;;;;5.07;2.77;;;0.10;99.90;;;;;;5053605;28;20287;-79
2021/04/07 02:03:21;;;;;;;6.00;3.23;;;0.10;99.90;;;;;;5053580;28;20238;-79
2021/04/07 02:05:47;;;;;;;8.80;3.27;;;0.10;99.90;;;;;;5053692;28;20249;-80
2021/04/07 02:08:14;;;;;;;7.40;3.20;;;0.00;99.90;;;;;;5053430;28;20231;-79
2021/04/07 02:10:40;;;;;;;4.27;2.70;;;0.00;99.90;;;;;;5053388;28;20291;-80
2021/04/07 02:13:06;;;;;;;3.83;2.70;;;0.00;99.90;;;;;;5053401;28;20649;-79
2021/04/07 02:15:34;;;;;;;9.00;3.23;;;0.00;99.90;;;;;;5052649;28;20291;-79
2021/04/07 02:18:00;;;;;;;6.87;2.60;;;0.00;99.90;;;;;;5053510;28;20243;-80
2021/04/07 02:20:27;;;;;;;4.63;2.60;;;-0.10;99.90;;;;;;5052805;28;20227;-79
2021/04/07 02:22:53;;;;;;;4.83;2.50;;;-0.10;99.90;;;;;;5053235;28;20364;-80
2021/04/07 02:25:20;;;;;;;6.23;2.43;;;-0.10;99.90;;;;;;5052798;28;20696;-79
2021/04/07 02:27:46;;;;;;;4.10;2.30;;;-0.10;99.90;;;;;;5051803;28;20671;-79
2021/04/07 02:30:15;;;;;;;4.43;2.60;;;-0.20;99.90;;;;;;5052633;28;20287;-79
2021/04/07 02:32:43;;;;;;;5.93;2.43;;;-0.30;99.90;;;;;;5052605;28;20278;-79
2021/04/07 02:35:10;;;;;;;7.73;2.87;;;-0.40;99.90;;;;;;5053189;28;20238;-79
2021/04/07 02:37:37;;;;;;;4.37;2.60;;;-0.30;99.90;;;;;;5052294;28;20235;-79
2021/04/07 02:40:05;;;;;;;4.40;2.43;;;-0.40;99.90;;;;;;5052915;28;20196;-79
2021/04/07 02:42:32;;;;;;;5.30;2.60;;;-0.40;99.90;;;;;;5052358;28;20250;-79
2021/04/07 02:44:58;;;;;;;6.60;3.67;;;-0.40;99.90;;;;;;5052825;28;20242;-79
2021/04/07 02:47:24;;;;;;;6.10;3.07;;;-0.40;99.90;;;;;;5052779;28;20258;-79
2021/04/07 02:49:52;;;;;;;4.90;2.77;;;-0.60;99.90;;;;;;5053010;28;20245;-79
2021/04/07 02:52:18;;;;;;;5.77;2.70;;;-0.60;99.90;;;;;;5052565;28;20288;-80
2021/04/07 02:54:44;;;;;;;4.57;2.67;;;-0.60;99.90;;;;;;5052699;28;20208;-79
2021/04/07 02:57:11;;;;;;;5.47;2.90;;;-0.60;99.90;;;;;;5052731;28;20230;-79
2021/04/07 02:59:37;;;;;;;4.73;2.80;;;-0.60;99.90;;;;;;5051976;28;20327;-79
2021/04/07 03:02:06;;;;;;;5.50;3.13;;;-0.60;99.90;;;;;;5052705;28;20200;-79
2021/04/07 03:04:32;;;;;;;6.07;3.00;;;-0.60;99.90;;;;;;5052163;28;20617;-79
2021/04/07 03:07:00;;;;;;;3.80;2.80;;;-0.70;99.90;;;;;;5052498;28;20293;-79
2021/04/07 03:09:26;;;;;;;6.77;3.20;;;-0.70;99.90;;;;;;5052477;28;20614;-79
2021/04/07 03:11:53;;;;;;;5.40;3.00;;;-0.80;99.90;;;;;;5051964;28;20291;-79
2021/04/07 03:14:20;;;;;;;5.33;3.00;;;-0.80;99.90;;;;;;5052139;28;20214;-79
2021/04/07 03:16:46;;;;;;;5.97;3.23;;;-0.80;99.90;;;;;;5051744;28;20242;-80
2021/04/07 03:19:12;;;;;;;5.80;3.20;;;-0.80;99.90;;;;;;5052038;28;20318;-80
2021/04/07 03:21:39;;;;;;;5.83;2.87;;;-0.80;99.90;;;;;;5051869;28;20314;-79
2021/04/07 03:24:07;;;;;;;5.60;3.17;;;-0.90;99.90;;;;;;5052386;28;20290;-81
2021/04/07 03:26:33;;;;;;;6.20;3.30;;;-1.00;99.90;;;;;;5051844;28;20338;-79
2021/04/07 03:29:00;;;;;;;7.00;3.20;;;-1.00;99.90;;;;;;5052352;28;20643;-80
2021/04/07 03:31:26;;;;;;;5.37;3.00;;;-1.00;99.90;;;;;;5051413;28;20231;-80
2021/04/07 03:33:52;;;;;;;4.73;2.97;;;-1.00;99.90;;;;;;5051555;28;20318;-80
2021/04/07 03:36:19;;;;;;;7.10;3.30;;;-1.00;99.90;;;;;;5051855;28;20652;-79
2021/04/07 03:38:45;;;;;;;3.17;2.67;;;-1.00;99.90;;;;;;5051503;28;20706;-80
2021/04/07 03:41:12;;;;;;;4.07;3.00;;;-1.10;99.90;;;;;;5052018;28;20293;-80
2021/04/07 03:43:39;;;;;;;5.10;3.27;;;-1.10;99.90;;;;;;5051493;28;20209;-80
2021/04/07 03:46:05;;;;;;;6.53;3.63;;;-1.20;99.90;;;;;;5051883;28;20261;-80
2021/04/07 03:48:32;;;;;;;10.83;5.77;;;-1.20;99.90;;;;;;5051638;28;20283;-80
2021/04/07 03:51:00;;;;;;;12.53;7.10;;;-1.10;99.90;;;;;;5051998;28;20206;-81
2021/04/07 03:53:28;;;;;;;14.77;8.27;;;-1.20;99.90;;;;;;5051801;28;20704;-80
2021/04/07 03:55:56;;;;;;;14.10;8.70;;;-1.10;99.90;;;;;;5051270;28;20206;-80
2021/04/07 03:58:24;;;;;;;13.87;8.77;;;-1.10;99.90;;;;;;5051686;28;20224;-80
2021/04/07 04:00:51;;;;;;;12.73;8.00;;;-1.10;99.90;;;;;;5051247;28;20863;-80
2021/04/07 04:03:18;;;;;;;14.23;7.47;;;-1.10;99.90;;;;;;5051691;28;20241;-80
2021/04/07 04:05:44;;;;;;;10.13;5.47;;;-1.10;99.90;;;;;;5051273;28;20199;-80
2021/04/07 04:08:11;;;;;;;9.73;4.93;;;-1.10;99.90;;;;;;5051878;28;20282;-80
2021/04/07 04:10:37;;;;;;;7.43;4.67;;;-1.20;99.90;;;;;;5051539;28;20305;-80
2021/04/07 04:13:05;;;;;;;7.87;4.90;;;-1.20;99.90;;;;;;5050874;28;20299;-80
2021/04/07 04:15:33;;;;;;;8.13;4.53;;;-1.30;99.90;;;;;;5051602;28;20205;-80
2021/04/07 04:18:00;;;;;;;9.30;5.07;;;-1.30;99.90;;;;;;5051337;28;20609;-80
2021/04/07 04:20:27;;;;;;;9.23;4.43;;;-1.30;99.90;;;;;;5051586;28;20674;-80
2021/04/07 04:22:54;;;;;;;5.90;3.63;;;-1.30;99.90;;;;;;5051363;28;20233;-80
2021/04/07 04:25:22;;;;;;;7.23;3.73;;;-1.30;99.90;;;;;;5051307;28;20777;-80
2021/04/07 04:27:49;;;;;;;6.40;3.97;;;-1.30;99.90;;;;;;5051068;28;20200;-81
2021/04/07 04:30:17;;;;;;;5.20;3.40;;;-1.30;99.90;;;;;;5051739;28;20662;-80
2021/04/07 04:32:45;;;;;;;7.03;3.67;;;-1.30;99.90;;;;;;5050831;28;20321;-82
2021/04/07 04:35:13;;;;;;;6.43;3.67;;;-1.30;99.90;;;;;;5051656;28;20294;-80
2021/04/07 04:37:40;;;;;;;7.03;4.30;;;-1.30;99.90;;;;;;5050901;28;20237;-80
2021/04/07 04:40:08;;;;;;;11.27;4.87;;;-1.30;99.90;;;;;;5050919;28;20334;-80
2021/04/07 04:42:35;;;;;;;9.60;5.93;;;-1.30;99.90;;;;;;5051393;28;20285;-80
2021/04/07 04:45:02;;;;;;;8.03;6.27;;;-1.30;99.90;;;;;;5055538;28;20672;-80
2021/04/07 04:47:29;;;;;;;9.53;6.20;;;-1.30;99.90;;;;;;5056299;28;20202;-81
2021/04/07 04:49:56;;;;;;;10.17;6.30;;;-1.40;99.90;;;;;;5056230;28;20207;-80
2021/04/07 04:52:23;;;;;;;9.27;5.87;;;-1.40;99.90;;;;;;5056116;28;20242;-80
2021/04/07 04:54:50;;;;;;;8.13;5.20;;;-1.50;99.90;;;;;;5055527;28;20640;-80
2021/04/07 04:57:17;;;;;;;8.77;5.57;;;-1.60;99.90;;;;;;5056911;28;20336;-81
2021/04/07 04:59:43;;;;;;;10.97;6.03;;;-1.60;99.90;;;;;;5056433;28;20294;-81
2021/04/07 05:02:10;;;;;;;13.83;6.47;;;-1.60;99.90;;;;;;5056030;28;20293;-80
2021/04/07 05:04:36;;;;;;;7.17;5.10;;;-1.60;99.90;;;;;;5056853;28;20233;-80
2021/04/07 05:07:04;;;;;;;12.63;5.33;;;-1.60;99.90;;;;;;5055742;28;20213;-81
2021/04/07 05:09:31;;;;;;;8.07;4.93;;;-1.60;99.90;;;;;;5056031;28;20293;-80
2021/04/07 05:11:57;;;;;;;6.57;4.60;;;-1.70;99.90;;;;;;5055660;28;20656;-79
2021/04/07 05:14:24;;;;;;;6.80;4.30;;;-1.70;99.90;;;;;;5056318;28;20296;-80
2021/04/07 05:16:50;;;;;;;5.47;3.70;;;-1.70;99.90;;;;;;5055641;28;20295;-80
2021/04/07 05:19:17;;;;;;;6.70;3.43;;;-1.70;99.90;;;;;;5054463;28;20661;-79
2021/04/07 05:21:43;;;;;;;5.83;3.53;;;-1.80;99.90;;;;;;5054744;28;20241;-79
2021/04/07 05:24:10;;;;;;;4.70;3.10;;;-1.90;99.90;;;;;;5053934;28;20625;-78
2021/04/07 05:26:38;;;;;;;5.87;3.00;;;-1.90;99.90;;;;;;5054612;28;20202;-80
2021/04/07 05:29:05;;;;;;;6.67;3.40;;;-2.00;99.90;;;;;;5054000;28;20232;-81
2021/04/07 05:31:31;;;;;;;4.87;3.10;;;-2.00;99.90;;;;;;5054286;28;20241;-81
2021/04/07 05:33:58;;;;;;;4.47;2.80;;;-2.00;99.90;;;;;;5053016;28;20293;-81
2021/04/07 05:36:24;;;;;;;3.63;2.70;;;-2.00;99.90;;;;;;5054387;28;20209;-80
2021/04/07 05:38:51;;;;;;;5.40;3.10;;;-2.00;99.90;;;;;;5050358;28;20312;-81
2021/04/07 05:41:18;;;;;;;6.13;3.37;;;-2.10;99.90;;;;;;5054209;28;20933;-81
2021/04/07 05:43:45;;;;;;;6.63;3.20;;;-2.10;99.90;;;;;;5047370;28;20205;-81
2021/04/07 05:46:12;;;;;;;6.80;3.33;;;-2.00;99.90;;;;;;5044942;28;20312;-81
2021/04/07 05:48:39;;;;;;;5.73;3.73;;;-1.90;99.90;;;;;;5038483;28;20209;-81
2021/04/07 05:51:09;;;;;;;6.20;3.87;;;-1.80;99.90;;;;;;5051357;28;20272;-81
2021/04/07 05:53:35;;;;;;;7.43;3.63;;;-1.70;99.90;;;;;;5051881;28;20261;-80
2021/04/07 05:56:02;;;;;;;7.47;3.87;;;-1.70;99.90;;;;;;5052601;28;20573;-82
2021/04/07 05:58:37;;;;;;;9.73;3.77;;;-1.60;99.90;;;;;;5049299;28;20269;-82
2021/04/07 06:01:07;;;;;;;7.47;4.67;;;-1.30;99.90;;;;;;5049873;28;20280;-80
2021/04/07 06:03:33;;;;;;;8.07;4.27;;;-1.00;99.90;;;;;;5045001;28;20914;-80
2021/04/07 06:06:00;;;;;;;6.77;4.43;;;-0.80;99.90;;;;;;5040845;28;20243;-80
2021/04/07 06:08:26;;;;;;;10.37;6.50;;;-0.70;99.90;;;;;;5052682;28;20260;-80
2021/04/07 06:10:52;;;;;;;12.57;7.43;;;-0.30;99.90;;;;;;5053123;28;20607;-80
2021/04/07 06:13:19;;;;;;;10.20;7.60;;;-0.10;99.90;;;;;;5052643;28;20224;-80
2021/04/07 06:15:57;;;;;;;8.60;6.10;;;0.00;99.90;;;;;;5048904;28;20242;-80
2021/04/07 06:18:23;;;;;;;6.67;4.37;;;0.20;99.90;;;;;;5048758;28;20222;-80
2021/04/07 06:20:50;;;;;;;6.47;3.90;;;0.30;99.90;;;;;;5047913;28;20691;-80
2021/04/07 06:23:18;;;;;;;5.70;3.63;;;0.50;99.90;;;;;;5050022;28;20279;-80
2021/04/07 06:25:46;;;;;;;4.40;2.90;;;0.90;99.90;;;;;;5045250;28;20275;-80
2021/04/07 06:28:14;;;;;;;4.50;2.47;;;1.50;99.90;;;;;;5038619;28;20235;-80
2021/04/07 06:30:42;;;;;;;5.50;2.67;;;1.70;99.90;;;;;;5048739;28;20209;-80
2021/04/07 06:33:12;;;;;;;5.83;3.23;;;1.90;99.90;;;;;;5036199;28;20230;-80
2021/04/07 06:35:40;;;;;;;5.20;3.13;;;2.20;99.90;;;;;;5043808;28;20879;-79
2021/04/07 06:38:07;;;;;;;6.23;3.30;;;2.70;99.90;;;;;;5034274;28;20663;-79
2021/04/07 06:40:34;;;;;;;7.17;3.50;;;3.10;99.90;;;;;;5039253;28;20199;-80
2021/04/07 06:43:02;;;;;;;5.87;3.20;;;3.80;99.90;;;;;;5045908;28;20674;-81
2021/04/07 06:45:30;;;;;;;5.00;3.13;;;4.50;99.90;;;;;;5037793;28;20336;-81
2021/04/07 06:47:57;;;;;;;3.93;3.00;;;5.30;99.90;;;;;;5055256;28;20623;-81
2021/04/07 06:50:25;;;;;;;4.80;3.10;;;6.00;99.90;;;;;;5053511;28;20291;-80
2021/04/07 06:52:55;;;;;;;5.43;3.93;;;6.50;99.90;;;;;;5048848;28;20235;-80
2021/04/07 06:55:22;;;;;;;6.73;4.90;;;7.40;99.90;;;;;;5053130;28;20226;-81
2021/04/07 06:57:48;;;;;;;9.57;5.53;;;7.70;99.90;;;;;;5056865;28;20244;-80
2021/04/07 07:00:16;;;;;;;7.80;5.87;;;7.90;99.90;;;;;;5041062;28;20322;-80
2021/04/07 07:02:42;;;;;;;8.70;6.20;;;8.40;99.90;;;;;;5045069;28;20244;-80
2021/04/07 07:05:10;;;;;;;12.70;8.23;;;8.80;99.90;;;;;;5049298;28;20278;-80
2021/04/07 07:07:38;;;;;;;10.93;9.63;;;9.10;99.90;;;;;;5047373;28;20301;-80
2021/04/07 07:10:06;;;;;;;13.80;10.23;;;9.30;99.90;;;;;;5049481;28;20759;-81
2021/04/07 07:12:32;;;;;;;13.33;10.67;;;9.50;99.90;;;;;;5050220;28;20223;-80
2021/04/07 07:15:02;;;;;;;8.70;6.87;;;9.40;99.90;;;;;;5037553;28;20214;-80
2021/04/07 07:17:29;;;;;;;9.73;7.30;;;9.60;99.90;;;;;;5050361;28;20207;-79
2021/04/07 07:19:56;;;;;;;8.80;6.67;;;10.20;99.90;;;;;;5048929;28;20307;-79
2021/04/07 07:22:25;;;;;;;6.10;4.47;;;10.40;99.90;;;;;;5046926;28;20245;-80
2021/04/07 07:24:53;;;;;;;5.40;4.70;;;9.90;99.90;;;;;;5043332;28;20255;-79
2021/04/07 07:27:33;;;;;;;5.03;3.60;;;10.00;99.90;;;;;;5038910;28;20740;-80
2021/04/07 07:30:00;;;;;;;4.00;2.73;;;10.50;99.90;;;;;;5040066;28;20675;-79
2021/04/07 07:32:33;;;;;;;4.43;3.20;;;10.80;99.90;;;;;;5049381;28;20235;-80
2021/04/07 07:35:20;;;;;;;3.90;2.90;;;11.30;99.90;;;;;;5052910;28;20294;-80
2021/04/07 07:38:21;;;;;;;3.63;2.60;;;11.00;99.90;;;;;;5044352;28;20220;-80
2021/04/07 07:40:51;;;;;;;3.73;2.50;;;11.00;99.90;;;;;;5049145;28;20200;-79
2021/04/07 07:46:38;;;;;;;3.43;1.90;;;10.70;99.90;;;;;;5037496;28;20683;-80
2021/04/07 07:49:14;;;;;;;5.10;2.53;;;11.80;99.90;;;;;;5048548;28;20638;-80
2021/04/07 07:51:44;;;;;;;4.73;2.67;;;12.00;99.90;;;;;;5044829;28;20234;-80
2021/04/07 07:54:14;;;;;;;4.80;2.13;;;12.30;99.90;;;;;;5046091;28;20209;-80
2021/04/07 07:56:41;;;;;;;4.40;2.57;;;13.10;99.90;;;;;;5043979;28;20287;-80
2021/04/07 07:59:07;;;;;;;3.27;2.40;;;12.60;99.90;;;;;;5048409;28;20215;-80
2021/04/07 08:01:46;;;;;;;4.38;2.45;;;12.00;99.90;;;;;;5047454;28;20212;-80
2021/04/07 08:04:12;;;;;;;2.70;2.30;;;12.30;99.90;;;;;;5045464;28;20195;-80
2021/04/07 08:06:39;;;;;;;3.75;2.30;;;12.00;99.90;;;;;;5051273;28;20228;-80
2021/04/07 08:09:06;;;;;;;3.95;2.10;;;13.10;99.90;;;;;;5041874;28;20294;-80
2021/04/07 08:11:33;;;;;;;3.72;2.05;;;12.60;99.90;;;;;;5047906;28;20298;-80
2021/04/07 08:14:01;;;;;;;2.95;2.00;;;12.10;99.90;;;;;;5048845;28;20246;-80
2021/04/07 08:16:29;;;;;;;3.85;1.70;;;12.30;99.90;;;;;;5046046;28;20731;-80
2021/04/07 08:18:56;;;;;;;2.50;1.90;;;12.60;99.90;;;;;;5050549;28;20310;-80
2021/04/07 08:21:23;;;;;;;4.18;2.05;;;12.70;99.90;;;;;;5049946;28;20256;-80
2021/04/07 08:23:55;;;;;;;3.42;1.85;;;12.60;99.90;;;;;;5046875;28;20212;-80
2021/04/07 08:26:24;;;;;;;3.28;2.05;;;12.90;99.90;;;;;;5048287;28;20287;-80
2021/04/07 08:28:52;;;;;;;3.50;1.83;;;12.80;99.90;;;;;;5044425;28;20283;-79
2021/04/07 08:31:20;;;;;;;3.10;1.95;;;13.40;99.90;;;;;;5051361;28;20210;-80
2021/04/07 08:33:48;;;;;;;3.33;1.80;;;13.60;99.90;;;;;;5043060;28;20294;-79
2021/04/07 08:36:18;;;;;;;4.22;1.55;;;13.50;99.90;;;;;;5053948;28;20282;-79
2021/04/07 08:38:45;;;;;;;3.05;1.05;;;13.50;99.90;;;;;;5047017;28;20216;-80
2021/04/07 08:41:13;;;;;;;3.30;1.67;;;12.50;99.90;;;;;;5050746;28;21234;-79
2021/04/07 08:43:39;;;;;;;3.28;1.05;;;13.20;99.90;;;;;;5042080;28;20845;-79
2021/04/07 08:46:14;;;;;;;3.43;1.90;;;13.50;99.90;;;;;;5058051;28;20294;-79
2021/04/07 08:48:42;;;;;;;16.20;11.47;;;13.90;99.90;;;;;;5051284;28;20206;-79
2021/04/07 08:51:10;;;;;;;6.10;2.23;;;13.00;99.90;;;;;;5049087;28;20258;-79
2021/04/07 08:53:40;;;;;;;3.80;1.60;;;13.80;99.90;;;;;;5049531;28;20223;-79
2021/04/07 08:56:10;;;;;;;19.47;16.80;;;14.30;99.90;;;;;;5049126;28;20200;-79
2021/04/07 08:58:49;;;;;;;2.63;1.57;;;14.80;99.90;;;;;;5049666;28;20254;-79
2021/04/07 09:01:19;;;;;;;3.67;1.33;;;14.60;99.90;;;;;;5044661;28;20727;-79
2021/04/07 09:03:47;;;;;;;5.80;4.57;;;13.10;99.90;;;;;;5046828;28;20227;-80
2021/04/07 09:06:14;;;;;;;4.47;2.60;;;13.10;99.90;;;;;;5052071;28;20224;-79
2021/04/07 09:08:52;;;;;;;5.03;2.63;;;14.90;99.90;;;;;;5042870;28;20290;-80
2021/04/07 09:11:28;;;;;;;4.90;1.50;;;14.90;99.90;;;;;;5048341;28;20236;-80
2021/04/07 09:13:59;;;;;;;2.87;1.60;;;14.70;99.90;;;;;;5054694;28;20272;-80
2021/04/07 09:16:35;;;;;;;4.97;1.70;;;14.50;99.90;;;;;;5043812;28;20286;-79
2021/04/07 09:19:17;;;;;;;5.27;1.30;;;13.70;99.90;;;;;;5050280;28;20219;-79
2021/04/07 09:21:58;;;;;;;3.67;2.20;;;13.00;99.50;;;;;;5038525;28;20271;-79
2021/04/07 09:24:29;;;;;;;3.03;1.47;;;13.50;99.90;;;;;;5051031;28;20691;-80
2021/04/07 09:26:56;;;;;;;4.23;1.57;;;14.60;99.90;;;;;;5050210;28;20218;-79
2021/04/07 09:29:23;;;;;;;2.13;1.30;;;15.10;99.70;;;;;;5050622;28;20188;-80
2021/04/07 09:31:51;;;;;;;3.73;1.30;;;13.80;96.70;;;;;;5037686;28;20233;-79
2021/04/07 09:34:18;;;;;;;3.20;1.37;;;13.20;98.30;;;;;;5042779;28;20200;-80
2021/04/07 09:36:54;;;;;;;3.13;1.50;;;14.60;98.50;;;;;;5042269;28;20227;-79
2021/04/07 09:39:24;;;;;;;2.30;1.40;;;16.50;96.70;;;;;;5052565;28;20231;-79
2021/04/07 09:41:52;;;;;;;3.97;1.90;;;15.90;99.20;;;;;;5048780;28;20213;-80
2021/04/07 09:44:25;;;;;;;2.42;1.55;;;17.30;97.30;;;;;;5054580;28;20238;-79
2021/04/07 09:47:08;;;;;;;4.60;2.10;;;15.50;95.30;;;;;;5050892;28;20200;-80
2021/04/07 09:49:40;;;;;;;2.58;1.50;;;16.10;99.90;;;;;;5047506;28;20262;-80
2021/04/07 09:52:07;;;;;;;2.97;1.58;;;16.70;99.80;;;;;;5051507;28;20588;-80
2021/04/07 09:54:37;;;;;;;2.20;1.45;;;16.20;99.90;;;;;;5055140;28;20575;-79
2021/04/07 09:57:08;;;;;;;2.08;1.50;;;14.20;97.50;;;;;;5045331;28;20216;-80
2021/04/07 09:59:40;;;;;;;4.00;1.50;;;13.20;97.50;;;;;;5049312;28;20212;-79
2021/04/07 10:02:14;;;;;;;2.80;1.80;;;13.40;99.90;;;;;;5045309;28;20204;-79
2021/04/07 10:04:43;;;;;;;2.87;1.70;;;14.00;99.90;;;;;;5053697;28;20212;-79
2021/04/07 10:07:13;;;;;;;6.43;1.60;;;14.50;99.90;;;;;;5051526;28;20200;-79
2021/04/07 10:09:43;;;;;;;2.10;1.50;;;13.40;99.90;;;;;;5054057;28;20200;-79
2021/04/07 10:12:11;;;;;;;3.47;1.30;;;13.10;99.90;;;;;;5059517;28;20302;-79
2021/04/07 10:14:38;;;;;;;2.53;1.23;;;12.60;99.90;;;;;;5052306;28;20577;-80
2021/04/07 10:17:15;;;;;;;22.47;18.63;;;11.40;99.90;;;;;;5051212;28;20228;-79
2021/04/07 10:19:47;;;;;;;10.17;7.80;;;11.70;99.90;;;;;;5052010;28;20229;-79
2021/04/07 10:22:30;;;;;;;3.47;2.67;;;13.80;99.90;;;;;;5051378;28;20196;-79
2021/04/07 10:25:12;;;;;;;;;;;;;;;;;;;;;
2021/04/07 10:27:39;;;;;;;11.47;7.10;;;16.10;99.90;;;;;;5049349;28;20198;-79
2021/04/07 10:30:08;;;;;;;2.63;1.80;;;16.90;98.10;;;;;;5052837;28;20196;-79
2021/04/07 10:32:42;;;;;;;5.25;1.98;;;17.30;92.80;;;;;;5049187;28;20243;-79
2021/04/07 10:35:17;;;;;;;8.90;4.70;;;17.10;96.00;;;;;;5052815;28;20596;-79
2021/04/07 10:37:51;;;;;;;2.83;1.55;;;18.60;92.60;;;;;;5044897;28;20207;-79
2021/04/07 10:40:19;;;;;;;3.45;1.85;;;16.60;94.30;;;;;;5051380;28;20222;-79
2021/04/07 10:42:46;;;;;;;3.43;1.30;;;14.40;97.70;;;;;;5045876;28;20295;-79
2021/04/07 10:45:16;;;;;;;3.10;1.50;;;13.40;98.40;;;;;;5046603;28;20231;-78
2021/04/07 10:47:42;;;;;;;49.70;31.43;;;12.40;99.90;;;;;;5044351;28;20283;-80
2021/04/07 10:50:10;;;;;;;36.90;25.53;;;11.30;99.90;;;;;;5052317;28;20282;-80
2021/04/07 10:52:39;;;;;;;3.27;2.00;;;11.30;99.90;;;;;;5039678;28;20278;-80
2021/04/07 10:55:09;;;;;;;3.07;1.50;;;13.10;99.90;;;;;;5050658;28;20200;-82
2021/04/07 10:57:36;;;;;;;2.80;1.70;;;14.80;96.90;;;;;;5046215;28;20672;-80
2021/04/07 11:00:06;;;;;;;3.73;2.33;;;15.50;99.90;;;;;;5032789;28;20228;-80
2021/04/07 11:02:43;;;;;;;5.90;5.10;;;16.90;97.40;;;;;;5042502;28;20618;-80
2021/04/07 11:05:15;;;;;;;1.87;1.60;;;14.20;98.60;;;;;;5048734;28;20199;-79
2021/04/07 11:07:41;;;;;;;2.13;1.77;;;15.50;94.80;;;;;;5034117;28;20196;-80
2021/04/07 11:10:09;;;;;;;3.63;1.60;;;17.10;95.60;;;;;;5054536;28;20295;-79
2021/04/07 11:12:37;;;;;;;2.38;1.60;;;17.80;92.50;;;;;;5049233;28;20285;-79
2021/04/07 11:15:04;;;;;;;4.07;1.50;;;17.40;94.70;;;;;;5044293;28;20292;-80
2021/04/07 11:17:30;;;;;;;3.17;1.65;;;16.30;93.40;;;;;;5048519;28;20200;-79
2021/04/07 11:19:57;;;;;;;1.30;1.20;;;17.30;94.00;;;;;;5041033;28;20300;-80
2021/04/07 11:22:24;;;;;;;2.33;1.33;;;18.20;87.20;;;;;;5042501;28;20196;-80
2021/04/07 11:24:50;;;;;;;2.45;1.17;;;19.90;90.70;;;;;;5042561;28;20227;-80
2021/04/07 11:27:17;;;;;;;2.72;1.20;;;20.20;82.70;;;;;;5039996;28;20867;-78
2021/04/07 11:29:43;;;;;;;2.38;1.17;;;19.90;87.30;;;;;;5047613;28;20707;-81
2021/04/07 11:32:11;;;;;;;2.60;1.30;;;19.70;85.00;;;;;;5045042;28;20327;-81
2021/04/07 11:34:41;;;;;;;1.92;1.23;;;20.10;81.30;;;;;;5042073;28;20582;-80
2021/04/07 11:37:16;;;;;;;2.65;1.30;;;19.90;81.40;;;;;;5044010;28;20204;-80
2021/04/07 11:39:50;;;;;;;4.18;1.33;;;20.00;73.20;;;;;;5047279;28;20222;-80
2021/04/07 11:42:20;;;;;;;2.60;1.50;;;19.20;80.50;;;;;;5041019;28;20241;-80
2021/04/07 11:44:47;;;;;;;2.42;1.55;;;17.30;81.40;;;;;;5037864;28;20204;-79
2021/04/07 11:47:29;;;;;;;3.67;1.42;;;16.40;87.30;;;;;;5044546;28;20195;-79
2021/04/07 11:49:55;;;;;;;2.22;1.40;;;17.60;91.10;;;;;;5048719;28;20222;-80
2021/04/07 11:52:21;;;;;;;2.80;1.70;;;16.30;89.10;;;;;;5050244;28;20287;-80
2021/04/07 11:54:49;;;;;;;2.42;1.58;;;16.40;93.10;;;;;;5050884;28;20277;-80
2021/04/07 11:57:16;;;;;;;3.30;2.15;;;18.40;91.80;;;;;;5058252;28;20866;-81
2021/04/07 11:59:43;;;;;;;2.78;1.75;;;17.40;90.00;;;;;;5047041;28;20314;-80
2021/04/07 12:02:09;;;;;;;4.10;1.98;;;17.60;92.70;;;;;;5049133;28;20334;-80
2021/04/07 12:04:36;;;;;;;3.65;1.98;;;19.20;90.00;;;;;;5048305;28;20302;-81
2021/04/07 12:07:03;;;;;;;3.83;2.28;;;19.50;84.60;;;;;;5046785;28;20683;-81
2021/04/07 12:09:30;;;;;;;2.65;1.73;;;19.60;85.40;;;;;;5036401;28;20223;-81
2021/04/07 12:11:57;;;;;;;3.75;1.77;;;20.10;84.30;;;;;;5045390;28;20200;-80
2021/04/07 12:14:25;;;;;;;3.05;1.90;;;19.80;83.70;;;;;;5032867;28;20690;-81
2021/04/07 12:16:51;;;;;;;3.00;1.70;;;19.70;83.40;;;;;;5039117;28;20645;-81
2021/04/07 12:19:20;;;;;;;2.97;2.10;;;19.10;85.10;;;;;;5049654;28;20691;-81
2021/04/07 12:21:47;;;;;;;3.00;1.80;;;18.80;79.00;;;;;;5034670;28;20204;-80
2021/04/07 12:24:13;;;;;;;2.05;1.60;;;19.40;82.50;;;;;;5047449;28;20261;-81
2021/04/07 12:26:41;;;;;;;3.72;1.60;;;19.00;75.90;;;;;;5046890;28;20242;-81
2021/04/07 12:29:08;;;;;;;3.58;1.42;;;18.70;74.20;;;;;;5047817;28;20278;-81
2021/04/07 12:31:34;;;;;;;2.75;1.40;;;19.40;80.10;;;;;;5040810;28;20227;-80
2021/04/07 12:34:01;;;;;;;2.25;1.23;;;19.40;80.60;;;;;;5040645;28;20283;-81
2021/04/07 12:36:29;;;;;;;3.40;1.30;;;19.80;80.80;;;;;;5050004;28;20231;-81
2021/04/07 12:38:56;;;;;;;2.65;1.30;;;20.30;83.00;;;;;;5040132;28;20657;-81
2021/04/07 12:41:26;;;;;;;3.30;1.30;;;20.90;80.00;;;;;;5047816;28;20282;-80
2021/04/07 12:43:53;;;;;;;2.10;1.45;;;18.40;79.70;;;;;;5048137;28;20816;-80
2021/04/07 12:46:20;;;;;;;4.75;1.92;;;16.20;79.00;;;;;;5050695;28;20275;-80
2021/04/07 12:48:48;;;;;;;2.60;1.80;;;15.20;86.50;;;;;;5049880;28;20671;-80
2021/04/07 12:51:15;;;;;;;4.93;2.03;;;14.70;90.30;;;;;;5051734;28;20207;-80
2021/04/07 12:53:42;;;;;;;2.50;1.50;;;16.10;90.40;;;;;;5054677;28;20229;-80
2021/04/07 12:56:10;;;;;;;3.90;1.58;;;17.40;90.70;;;;;;5041778;28;21157;-80
2021/04/07 12:58:37;;;;;;;5.95;1.60;;;18.20;85.50;;;;;;5038480;28;20200;-79